createdAt,value
2018-08-30T01:13:46.166Z,18.78
2018-08-30T02:01:23.792Z,17.97
2018-08-30T02:22:21.475Z,17.63
2018-08-30T02:24:50.936Z,17.48
2018-08-30T02:27:20.831Z,17.55
2018-08-30T02:29:49.517Z,17.55
2018-08-30T02:32:19.267Z,17.49
2018-08-30T02:34:47.840Z,17.43
2018-08-30T02:37:17.183Z,17.42
2018-08-30T02:39:47.237Z,17.41
2018-08-30T02:42:15.784Z,17.52
2018-08-30T02:44:44.243Z,17.53
2018-08-30T08:24:12.079Z,18.64
2018-08-30T08:26:40.459Z,18.68
2018-08-30T08:29:08.683Z,18.94
2018-08-30T08:31:37.016Z,19.06
2018-08-30T08:34:05.232Z,19.28
2018-08-30T08:36:33.433Z,19.33
2018-08-30T08:39:01.691Z,19.30
2018-08-30T08:41:30.278Z,19.28
2018-08-30T08:44:00.771Z,19.24
2018-08-30T08:46:29.015Z,19.24
2018-08-30T08:48:58.910Z,19.14
2018-08-30T08:51:27.138Z,19.34
2018-08-30T08:53:55.790Z,19.65
2018-08-30T08:56:23.960Z,19.85
2018-08-30T08:58:52.218Z,19.72
2018-08-30T09:01:20.452Z,19.57
2018-08-30T09:03:48.951Z,19.42
2018-08-30T09:06:17.136Z,19.37
2018-08-30T09:08:46.436Z,19.36
2018-08-30T09:11:14.771Z,19.70
2018-08-30T09:13:43.025Z,20.02
2018-08-30T09:16:11.208Z,20.19
2018-08-30T09:18:39.445Z,20.28
2018-08-30T09:21:07.661Z,20.44
2018-08-30T09:23:35.819Z,20.49
2018-08-30T09:26:04.804Z,20.47
2018-08-30T09:28:32.907Z,20.40
2018-08-30T09:31:02.221Z,19.98
2018-08-30T09:33:30.334Z,20.22
2018-08-30T09:35:58.463Z,20.14
2018-08-30T09:38:26.592Z,20.31
2018-08-30T09:40:54.708Z,20.26
2018-08-30T09:43:23.747Z,19.95
2018-08-30T09:45:51.898Z,20.04
2018-08-30T09:48:20.059Z,20.31
2018-08-30T09:50:48.177Z,20.81
2018-08-30T09:53:16.296Z,20.75
2018-08-30T09:55:44.462Z,20.59
2018-08-30T09:58:13.381Z,20.55
2018-08-30T10:00:46.879Z,20.77
2018-08-30T10:03:15.000Z,20.79
2018-08-30T10:05:43.123Z,21.23
2018-08-30T10:08:11.240Z,21.45
2018-08-30T10:10:39.354Z,21.45
2018-08-30T10:13:07.478Z,20.74
2018-08-30T10:15:36.075Z,20.35
2018-08-30T10:18:04.174Z,20.25
2018-08-30T10:20:34.024Z,20.40
2018-08-30T10:23:02.168Z,20.23
2018-08-30T10:25:30.373Z,20.21
2018-08-30T10:27:58.691Z,20.36
2018-08-30T10:30:26.802Z,20.38
2018-08-30T10:32:55.145Z,20.10
2018-08-30T11:44:32.010Z,20.77
2018-08-30T11:47:00.134Z,21.09
2018-08-30T11:49:28.265Z,21.27
2018-08-30T11:51:56.374Z,21.78
2018-08-30T11:54:24.492Z,21.94
2018-08-30T11:56:52.634Z,21.67
2018-08-30T11:59:20.953Z,21.87
2018-08-30T12:01:49.077Z,22.10
2018-08-30T12:04:18.012Z,22.30
2018-08-30T12:06:46.151Z,22.21
2018-08-30T12:09:14.849Z,22.26
2018-08-30T12:11:43.177Z,22.11
2018-08-30T12:14:11.232Z,22.23
2018-08-30T12:16:39.347Z,22.67
2018-08-30T12:19:07.936Z,23.19
2018-08-30T12:21:36.118Z,23.44
2018-08-30T12:24:04.234Z,22.76
2018-08-30T12:26:32.350Z,23.17
2018-08-30T12:29:00.555Z,23.28
2018-08-30T12:31:28.590Z,23.25
2018-08-30T12:33:56.726Z,23.27
2018-08-30T12:36:24.897Z,22.88
2018-08-30T12:38:53.078Z,23.10
2018-08-30T12:41:21.220Z,22.83
2018-08-30T12:43:49.430Z,23.14
2018-08-30T12:46:17.432Z,22.88
2018-08-30T12:48:45.503Z,23.04
2018-08-30T12:51:13.747Z,23.42
2018-08-30T12:53:41.764Z,23.26
2018-08-30T12:56:09.862Z,22.63
2018-08-30T12:58:38.092Z,22.13
2018-08-30T13:01:06.258Z,22.73
2018-08-30T13:03:34.347Z,22.31
2018-08-30T13:06:02.641Z,22.23
2018-08-30T13:08:30.768Z,22.59
2018-08-30T13:10:58.973Z,22.25
2018-08-30T13:13:26.934Z,22.04
2018-08-30T13:15:55.110Z,21.74
2018-08-30T13:18:23.169Z,22.21
2018-08-30T13:20:51.373Z,22.51
2018-08-30T13:23:19.743Z,22.70
2018-08-30T13:25:48.105Z,22.62
2018-08-30T13:28:15.981Z,22.06
2018-08-30T13:30:44.121Z,22.16
2018-08-30T13:33:19.905Z,22.58
2018-08-30T13:35:41.080Z,22.01
2018-08-30T13:38:09.370Z,21.91
2018-08-30T13:40:37.731Z,22.23
2018-08-30T13:43:05.826Z,22.85
2018-08-30T13:45:33.877Z,23.00
2018-08-30T13:48:02.296Z,23.22
2018-08-30T13:50:30.260Z,23.60
2018-08-30T13:52:58.287Z,23.78
2018-08-30T13:55:26.376Z,23.38
2018-08-30T13:57:54.656Z,23.64
2018-08-30T14:00:22.600Z,23.28
2018-08-30T14:02:50.699Z,22.83
2018-08-30T14:05:18.907Z,23.47
2018-08-30T14:07:46.809Z,23.80
2018-08-30T14:10:15.002Z,23.40
2018-08-30T14:12:43.045Z,23.43
2018-08-30T14:15:11.280Z,23.29
2018-08-30T14:17:39.037Z,23.63
2018-08-30T14:20:07.115Z,23.63
2018-08-30T14:22:35.303Z,23.47
2018-08-30T14:25:03.351Z,22.90
2018-08-30T14:27:31.462Z,22.78
2018-08-30T14:29:59.593Z,22.43
2018-08-30T14:32:27.773Z,22.49
2018-08-30T14:34:56.211Z,21.94
2018-08-30T14:37:24.402Z,22.15
2018-08-30T14:39:52.518Z,22.12
2018-08-30T14:42:20.666Z,21.90
2018-08-30T14:44:48.783Z,21.87
2018-08-30T14:47:16.968Z,21.84
2018-08-30T14:49:45.096Z,21.90
2018-08-30T14:52:14.010Z,21.82
2018-08-30T14:54:42.348Z,21.84
2018-08-30T14:57:10.268Z,22.01
2018-08-30T14:59:38.484Z,22.10
2018-08-30T15:02:06.500Z,21.78
2018-08-30T15:04:34.629Z,21.66
2018-08-30T15:07:03.767Z,21.35
2018-08-30T15:12:34.933Z,20.63
2018-08-30T15:15:03.106Z,20.65
2018-08-30T15:17:31.488Z,20.53
2018-08-30T15:20:00.811Z,20.34
2018-08-30T15:22:29.257Z,20.27
2018-08-30T15:24:57.621Z,20.24
2018-08-30T15:27:25.830Z,20.24
2018-08-30T15:29:54.318Z,20.12
2018-08-30T15:32:22.591Z,20.14
2018-08-30T15:34:50.631Z,19.97
2018-08-30T15:37:18.861Z,19.97
2018-08-30T15:39:47.144Z,19.71
2018-08-30T15:42:16.071Z,19.49
2018-08-30T15:44:44.251Z,19.43
2018-08-30T15:47:12.538Z,19.33
2018-08-30T15:49:40.802Z,19.25
2018-08-30T15:52:09.119Z,19.03
2018-08-30T15:54:37.511Z,18.86
2018-08-30T15:57:06.130Z,18.83
2018-08-30T15:59:34.631Z,18.71
2018-08-30T16:02:04.437Z,18.67
2018-08-30T16:04:33.027Z,18.61
2018-08-30T16:07:01.895Z,18.43
2018-08-30T16:09:30.139Z,18.40
2018-08-30T16:11:58.385Z,18.46
2018-08-30T16:14:29.606Z,18.48
2018-08-30T16:16:57.961Z,18.25
2018-08-30T16:19:28.044Z,18.13
2018-08-30T16:21:56.202Z,18.13
2018-08-30T16:24:24.477Z,18.11
2018-08-30T16:26:52.622Z,18.06
2018-08-30T16:29:21.697Z,18.05
2018-08-30T16:31:50.617Z,18.11
2018-08-30T16:34:18.877Z,18.12
2018-08-30T16:36:47.199Z,18.05
2018-08-30T16:39:15.477Z,18.07
2018-08-30T17:25:33.086Z,18.12
2018-08-30T17:28:08.077Z,17.99
2018-08-30T17:30:36.511Z,17.95
2018-08-30T17:33:11.507Z,17.80
2018-08-30T17:35:39.727Z,17.84
2018-08-30T17:56:23.878Z,17.75
2018-08-30T17:58:52.455Z,17.69
2018-08-30T18:01:21.254Z,17.66
2018-08-30T18:22:04.883Z,17.74
2018-08-30T18:24:33.403Z,17.70
2018-08-30T18:27:08.300Z,17.52
2018-08-30T19:03:06.396Z,16.59
2018-08-30T19:05:35.205Z,16.36
2018-08-30T19:08:07.063Z,16.31
2018-08-30T19:10:36.370Z,16.45
2018-08-30T19:13:04.697Z,16.32
2018-08-30T19:15:38.975Z,16.20
2018-08-30T19:18:13.063Z,16.15
